Time;durP1;ratioP1;P1;durP2;ratioP2;P2;SDS_P1;SDS_P2;PMS_P1;PMS_P2;Temp;Humidity;BMP_temperature;BMP_pressure;BME280_temperature;BME280_humidity;BME280_pressure;Samples;Min_cycle;Max_cycle;Signal;HPM_P1;HPM_P2
2023/04/04 00:02:07;;;;;;;7.20;3.80;;;;;;;3.02;62.49;101407.39;180655;1264;59632;-83
2023/04/04 00:06:10;;;;;;;6.90;4.40;;;;;;;2.96;62.36;101405.11;180597;1264;44156;-82
2023/04/04 00:10:14;;;;;;;11.30;4.10;;;;;;;2.88;61.60;101402.21;180562;1264;44110;-82
2023/04/04 00:14:18;;;;;;;4.50;3.30;;;;;;;2.84;62.01;101392.00;180656;1264;43795;-82
2023/04/04 00:18:21;;;;;;;6.10;4.20;;;;;;;2.80;62.77;101391.08;180495;1263;44116;-83
2023/04/04 00:22:24;;;;;;;4.50;3.30;;;;;;;2.76;62.70;101386.84;180694;1263;59397;-83
2023/04/04 00:26:27;;;;;;;4.40;3.20;;;;;;;2.74;63.05;101377.44;180531;1263;43752;-83
2023/04/04 00:30:30;;;;;;;5.70;3.10;;;;;;;2.74;64.18;101374.45;180636;1265;47320;-83
2023/04/04 00:34:35;;;;;;;6.40;3.10;;;;;;;2.77;63.64;101375.63;180640;1262;43840;-83
2023/04/04 00:38:38;;;;;;;7.90;2.30;;;;;;;2.75;62.97;101371.64;180570;1265;43729;-83
2023/04/04 00:42:41;;;;;;;6.70;3.40;;;;;;;2.74;63.41;101371.64;180708;1263;59678;-83
2023/04/04 00:46:44;;;;;;;5.10;3.10;;;;;;;2.70;63.18;101366.18;180656;1262;44293;-83
2023/04/04 00:50:47;;;;;;;6.30;2.50;;;;;;;2.67;64.00;101363.30;180709;1264;44040;-83
2023/04/04 00:54:50;;;;;;;11.70;3.90;;;;;;;2.62;64.21;101360.65;180674;1262;44188;-83
2023/04/04 00:58:55;;;;;;;5.10;3.00;;;;;;;2.57;64.55;101358.02;180725;1264;44115;-83
2023/04/04 01:02:58;;;;;;;5.20;2.70;;;;;;;2.55;64.54;101350.34;180616;1264;56932;-83
2023/04/04 01:07:01;;;;;;;5.40;3.10;;;;;;;2.58;65.17;101349.74;180696;1264;43803;-83
2023/04/04 01:11:05;;;;;;;5.90;3.20;;;;;;;2.55;65.82;101349.82;180631;1264;44028;-83
2023/04/04 01:15:08;;;;;;;5.90;3.30;;;;;;;2.53;65.67;101347.27;180636;1264;44294;-83
2023/04/04 01:19:20;;;;;;;3.00;2.50;;;;;;;2.51;66.26;101341.90;180737;1263;44082;-83
2023/04/04 01:23:31;;;;;;;5.60;2.90;;;;;;;2.50;65.86;101336.84;180574;1264;59248;-83
2023/04/04 01:27:34;;;;;;;6.20;2.70;;;;;;;2.47;66.38;101331.35;180638;1264;43723;-83
2023/04/04 01:31:59;;;;;;;5.00;3.10;;;;;;;2.46;67.17;101331.02;180837;1262;44115;-83
2023/04/04 01:36:02;;;;;;;8.00;3.10;;;;;;;2.45;67.48;101331.20;180643;1264;44019;-83
2023/04/04 01:40:20;;;;;;;4.90;3.30;;;;;;;2.50;69.17;101328.27;180759;1263;44042;-83
2023/04/04 01:44:24;;;;;;;7.00;3.40;;;;;;;2.55;69.97;101327.05;180530;1264;60167;-83
2023/04/04 01:48:27;;;;;;;4.50;2.40;;;;;;;2.52;69.13;101325.94;180660;1264;43765;-83
2023/04/04 01:52:30;;;;;;;6.90;6.00;;;;;;;2.46;66.89;101324.55;180713;1264;43835;-83
2023/04/04 01:56:33;;;;;;;5.40;3.60;;;;;;;2.42;67.24;101322.02;180730;1263;44170;-83
2023/04/04 02:00:37;;;;;;;4.80;3.70;;;;;;;2.43;68.25;101316.73;180691;1264;43764;-84
2023/04/04 02:04:40;;;;;;;7.50;4.30;;;;;;;2.44;69.22;101310.59;180573;1264;59988;-83
2023/04/04 02:08:43;;;;;;;7.00;4.50;;;;;;;2.47;70.77;101312.80;180760;1263;43978;-83
2023/04/04 02:12:46;;;;;;;9.50;4.40;;;;;;;2.52;71.58;101308.05;180765;1262;44121;-83
2023/04/04 02:16:50;;;;;;;6.10;3.30;;;;;;;2.59;71.82;101305.39;180602;1264;43906;-83
2023/04/04 02:21:16;;;;;;;6.40;4.10;;;;;;;2.64;72.35;101304.88;180546;1264;44311;-83
2023/04/04 02:25:21;;;;;;;16.10;4.10;;;;;;;2.66;72.24;101309.52;180730;1264;57897;-84
2023/04/04 02:29:24;;;;;;;5.60;3.90;;;;;;;2.67;72.12;101307.94;180628;1263;44630;-83
2023/04/04 02:33:28;;;;;;;8.40;3.70;;;;;;;2.65;71.77;101312.74;180661;1264;44107;-83
2023/04/04 02:37:31;;;;;;;8.50;4.80;;;;;;;2.52;71.88;101312.60;180756;1262;43893;-83
2023/04/04 02:41:34;;;;;;;6.20;4.60;;;;;;;2.46;72.09;101314.02;180647;1264;43919;-83
2023/04/04 02:45:37;;;;;;;12.30;5.80;;;;;;;2.40;72.44;101310.16;180737;1264;59315;-83
2023/04/04 02:49:40;;;;;;;11.40;6.90;;;;;;;2.39;72.78;101309.88;180505;1264;43845;-83
2023/04/04 02:53:43;;;;;;;9.60;6.00;;;;;;;2.40;73.25;101310.71;180730;1263;43966;-83
2023/04/04 02:57:51;;;;;;;11.50;5.10;;;;;;;2.38;73.19;101310.07;180690;1262;43926;-83
2023/04/04 03:01:54;;;;;;;11.20;6.00;;;;;;;2.39;73.33;101308.64;180692;1264;44162;-84
2023/04/04 03:05:59;;;;;;;9.20;6.30;;;;;;;2.38;73.15;101309.55;180710;1262;56933;-85
2023/04/04 03:10:02;;;;;;;8.30;5.00;;;;;;;2.35;73.76;101307.54;180627;1263;43791;-81
2023/04/04 03:14:06;;;;;;;7.10;5.20;;;;;;;2.27;74.12;101305.85;180622;1263;43851;-84
2023/04/04 03:18:09;;;;;;;13.80;5.40;;;;;;;2.19;74.33;101307.70;180609;1262;44191;-80
2023/04/04 03:22:12;;;;;;;11.50;6.50;;;;;;;2.15;75.11;101305.15;180712;1263;43808;-81
2023/04/04 03:26:15;;;;;;;10.00;6.20;;;;;;;2.15;75.13;101306.38;180584;1264;57907;-83
2023/04/04 03:30:19;;;;;;;15.00;5.00;;;;;;;2.11;75.35;101303.35;180610;1263;44569;-87
2023/04/04 03:34:23;;;;;;;12.60;7.10;;;;;;;2.04;75.96;101299.38;180723;1263;44027;-87
2023/04/04 03:38:26;;;;;;;10.50;7.10;;;;;;;2.01;76.09;101302.95;180604;1264;44328;-86
2023/04/04 03:42:33;;;;;;;14.10;6.50;;;;;;;1.97;76.34;101304.83;180609;1267;44267;-86
2023/04/04 03:46:36;;;;;;;6.60;4.90;;;;;;;1.90;76.58;101310.80;180603;1265;58264;-86
2023/04/04 03:50:40;;;;;;;8.30;5.90;;;;;;;1.80;77.64;101314.04;180552;1264;44057;-85
2023/04/04 03:54:44;;;;;;;13.10;8.60;;;;;;;1.67;78.50;101310.05;180633;1263;44040;-85
2023/04/04 03:58:48;;;;;;;14.00;7.10;;;;;;;1.53;78.97;101304.13;180482;1264;44053;-86
2023/04/04 04:02:52;;;;;;;13.10;7.60;;;;;;;1.43;79.32;101303.36;180696;1264;43729;-86
2023/04/04 04:06:56;;;;;;;10.80;7.20;;;;;;;1.34;79.16;101302.73;180725;1264;57320;-87
2023/04/04 04:11:06;;;;;;;10.30;6.40;;;;;;;1.25;79.58;101310.30;180777;1264;44423;-87
2023/04/04 04:15:10;;;;;;;12.20;7.40;;;;;;;1.19;80.40;101308.39;180713;1264;44133;-86
2023/04/04 04:19:14;;;;;;;10.20;6.60;;;;;;;1.16;80.67;101310.89;180722;1264;44157;-87
2023/04/04 04:23:18;;;;;;;11.70;7.40;;;;;;;1.12;81.00;101313.77;180794;1264;43750;-87
2023/04/04 04:27:24;;;;;;;12.80;6.80;;;;;;;1.12;80.93;101319.39;180713;1263;59203;-89
2023/04/04 04:31:29;;;;;;;13.10;7.50;;;;;;;1.12;80.83;101317.10;180675;1265;44043;-90
2023/04/04 04:35:39;;;;;;;8.90;7.10;;;;;;;1.10;81.30;101316.27;180522;1264;43779;-87
2023/04/04 04:39:44;;;;;;;13.30;7.50;;;;;;;1.10;81.29;101318.02;180742;1266;43730;-88
2023/04/04 04:43:47;;;;;;;13.70;7.30;;;;;;;1.09;80.70;101316.48;180572;1265;44045;-88
2023/04/04 04:47:51;;;;;;;10.10;6.00;;;;;;;1.11;80.23;101317.48;180612;1265;59581;-87
2023/04/04 04:51:55;;;;;;;7.80;5.70;;;;;;;1.12;79.85;101316.05;180549;1265;44215;-88
2023/04/04 04:55:57;;;;;;;8.90;7.00;;;;;;;1.13;79.83;101316.38;180424;1264;43884;-88
2023/04/04 05:00:03;;;;;;;13.50;6.90;;;;;;;1.16;79.05;101321.02;180640;1265;43744;-88
2023/04/04 05:04:07;;;;;;;13.20;7.00;;;;;;;1.17;79.05;101317.50;180822;1264;43624;-88
2023/04/04 05:08:12;;;;;;;10.80;7.10;;;;;;;1.15;77.57;101321.23;180562;1264;59686;-88
2023/04/04 05:12:15;;;;;;;16.80;7.70;;;;;;;1.17;77.44;101322.22;180392;1265;43797;-87
2023/04/04 05:16:19;;;;;;;11.30;6.20;;;;;;;1.18;77.02;101326.92;180634;1264;44171;-87
2023/04/04 05:20:23;;;;;;;15.00;6.00;;;;;;;1.13;75.73;101334.03;180604;1263;43975;-88
2023/04/04 05:24:27;;;;;;;10.50;5.90;;;;;;;1.18;76.93;101333.90;180746;1264;43987;-87
2023/04/04 05:28:30;;;;;;;13.70;7.10;;;;;;;1.21;76.17;101334.37;180569;1265;59674;-87
2023/04/04 05:32:34;;;;;;;8.80;6.70;;;;;;;1.18;74.81;101335.48;180763;1262;43789;-87
2023/04/04 05:36:37;;;;;;;15.40;6.50;;;;;;;1.17;74.88;101335.67;180930;1264;44174;-88
2023/04/04 05:40:41;;;;;;;13.80;7.50;;;;;;;1.16;75.26;101337.27;180807;1262;43764;-88
2023/04/04 05:44:45;;;;;;;6.60;5.90;;;;;;;1.15;74.93;101342.55;180818;1262;44049;-87
2023/04/04 05:48:51;;;;;;;9.10;6.10;;;;;;;1.16;75.25;101344.09;180745;1262;59254;-87
2023/04/04 05:52:54;;;;;;;11.20;6.20;;;;;;;1.18;75.66;101344.73;180584;1264;44102;-88
2023/04/04 05:56:57;;;;;;;11.00;6.80;;;;;;;1.25;75.90;101345.96;180889;1263;43875;-88
2023/04/04 06:01:05;;;;;;;14.10;6.00;;;;;;;1.29;73.88;101352.50;180653;1264;44168;-87
2023/04/04 06:05:09;;;;;;;16.50;5.80;;;;;;;1.32;73.47;101353.29;180651;1264;43777;-87
2023/04/04 06:09:12;;;;;;;8.40;5.20;;;;;;;1.37;72.52;101350.00;180589;1264;58271;-88
2023/04/04 06:13:15;;;;;;;8.00;5.20;;;;;;;1.43;72.97;101343.56;180744;1263;44073;-87
2023/04/04 06:17:18;;;;;;;4.90;3.70;;;;;;;1.48;72.78;101345.18;180833;1264;43777;-88
2023/04/04 06:21:22;;;;;;;8.80;5.30;;;;;;;1.49;72.08;101346.89;180722;1264;44066;-87
2023/04/04 06:25:25;;;;;;;13.30;5.30;;;;;;;1.53;72.29;101347.67;180723;1264;43996;-87
2023/04/04 06:29:30;;;;;;;6.60;5.40;;;;;;;1.59;72.85;101342.45;180736;1264;59482;-88
2023/04/04 06:33:33;;;;;;;7.80;5.00;;;;;;;1.69;70.82;101341.63;180590;1264;44200;-87
2023/04/04 06:37:36;;;;;;;9.60;4.80;;;;;;;1.75;69.88;101341.99;180710;1263;43767;-87
2023/04/04 06:41:39;;;;;;;12.40;4.80;;;;;;;1.74;68.80;101338.53;180650;1262;43955;-87
2023/04/04 06:45:43;;;;;;;5.70;4.80;;;;;;;1.80;69.56;101341.88;180757;1266;43798;-87
2023/04/04 06:49:46;;;;;;;5.90;5.20;;;;;;;1.85;68.40;101344.52;180740;1262;58621;-87
2023/04/04 06:53:49;;;;;;;7.70;4.70;;;;;;;1.97;68.58;101343.67;180825;1263;44217;-87
2023/04/04 06:57:53;;;;;;;9.70;4.70;;;;;;;2.08;67.89;101341.40;180903;1263;44004;-87
2023/04/04 07:01:56;;;;;;;5.40;3.50;;;;;;;2.15;67.13;101339.98;180868;1262;43942;-87
2023/04/04 07:06:04;;;;;;;5.20;3.30;;;;;;;2.23;66.06;101342.02;180821;1263;44261;-87
2023/04/04 07:10:08;;;;;;;9.90;4.60;;;;;;;2.31;66.96;101340.57;180735;1263;57530;-87
2023/04/04 07:14:11;;;;;;;4.50;4.00;;;;;;;2.37;65.35;101340.05;180932;1262;43803;-87
2023/04/04 07:18:15;;;;;;;5.60;3.40;;;;;;;2.41;63.41;101339.58;180811;1266;43913;-87
2023/04/04 07:22:19;;;;;;;5.10;3.50;;;;;;;2.43;63.38;101340.20;180740;1262;44087;-87
2023/04/04 07:26:22;;;;;;;5.80;3.80;;;;;;;2.51;64.22;101341.00;180730;1263;44081;-87
2023/04/04 07:30:27;;;;;;;6.60;3.90;;;;;;;2.58;62.51;101344.31;180778;1263;57999;-87
2023/04/04 07:34:31;;;;;;;5.30;2.10;;;;;;;2.64;62.16;101345.85;180981;1262;43869;-87
2023/04/04 07:38:35;;;;;;;5.30;2.20;;;;;;;2.68;58.85;101345.18;180730;1262;44088;-87
2023/04/04 07:42:46;;;;;;;4.20;2.70;;;;;;;2.70;57.47;101345.13;180743;1264;44091;-87
2023/04/04 07:46:49;;;;;;;3.10;1.80;;;;;;;2.72;57.65;101342.29;180737;1263;44260;-87
2023/04/04 07:51:09;;;;;;;3.20;2.40;;;;;;;2.60;56.55;101346.18;180787;1262;59938;-87
2023/04/04 07:55:12;;;;;;;5.70;2.30;;;;;;;2.62;56.60;101342.77;180713;1262;44138;-87
2023/04/04 07:59:20;;;;;;;3.20;1.80;;;;;;;2.62;56.21;101344.87;180950;1263;43878;-87
2023/04/04 08:03:24;;;;;;;2.60;2.10;;;;;;;2.54;55.95;101342.15;180450;1264;434797;-86
2023/04/04 08:07:28;;;;;;;2.10;1.90;;;;;;;2.51;55.70;101347.84;180765;1263;44210;-86
2023/04/04 08:11:32;;;;;;;2.20;1.80;;;;;;;2.57;54.36;101340.48;180638;1262;59616;-87
2023/04/04 08:15:36;;;;;;;2.10;1.60;;;;;;;2.67;56.15;101338.05;180902;1263;44041;-87
2023/04/04 08:19:40;;;;;;;1.90;1.40;;;;;;;2.65;55.31;101338.99;180653;1264;44222;-86
2023/04/04 08:23:43;;;;;;;6.50;2.50;;;;;;;2.62;55.03;101330.17;180791;1263;44355;-87
2023/04/04 08:27:46;;;;;;;3.40;1.90;;;;;;;2.80;54.95;101329.42;180716;1263;43805;-87
2023/04/04 08:31:52;;;;;;;2.10;1.50;;;;;;;3.01;54.25;101329.79;180814;1262;57637;-87
2023/04/04 08:35:57;;;;;;;2.40;1.70;;;;;;;3.23;56.25;101327.13;180947;1263;44121;-87
2023/04/04 08:40:05;;;;;;;4.20;2.20;;;;;;;3.36;54.46;101319.83;180829;1262;45830;-87
2023/04/04 08:44:16;;;;;;;3.50;1.60;;;;;;;3.39;55.63;101315.02;180792;1263;44022;-87
2023/04/04 08:48:22;;;;;;;2.70;1.60;;;;;;;3.37;53.54;101313.48;180721;1263;43975;-87
2023/04/04 08:52:27;;;;;;;;;;;;;;;3.38;54.64;101311.17;180739;1262;59255;-87
2023/04/04 08:56:32;;;;;;;3.70;2.30;;;;;;;3.35;53.71;101310.05;180699;1262;43825;-87
2023/04/04 09:00:39;;;;;;;1.20;1.10;;;;;;;3.29;56.51;101304.28;180858;1262;43802;-87
2023/04/04 09:04:45;;;;;;;3.00;2.10;;;;;;;3.20;56.25;101309.16;180679;1264;43812;-87
2023/04/04 09:09:06;;;;;;;8.20;2.20;;;;;;;3.25;55.92;101308.32;180872;1262;44157;-86
2023/04/04 09:13:09;;;;;;;3.60;1.70;;;;;;;3.26;56.67;101304.04;180690;1262;57361;-86
2023/04/04 09:17:19;;;;;;;2.90;1.60;;;;;;;3.26;54.61;101305.25;180691;1263;43990;-87
2023/04/04 09:21:22;;;;;;;1.80;1.00;;;;;;;3.32;53.82;101300.16;180742;1263;44035;-87
2023/04/04 09:25:26;;;;;;;3.00;1.80;;;;;;;3.41;55.11;101294.44;180757;1262;43832;-87
2023/04/04 09:29:29;;;;;;;2.50;1.10;;;;;;;3.50;55.66;101298.29;180939;1262;44075;-86
2023/04/04 09:33:33;;;;;;;1.50;1.30;;;;;;;3.63;54.68;101298.52;180823;1262;59624;-87
2023/04/04 09:37:39;;;;;;;1.90;1.80;;;;;;;3.66;54.02;101296.48;180764;1262;43739;-86
2023/04/04 09:41:46;;;;;;;6.00;1.20;;;;;;;3.47;54.75;101290.70;180822;1262;43764;-87
2023/04/04 09:45:50;;;;;;;;;;;;;;;3.51;55.16;101290.73;180875;1262;44830;-87
2023/04/04 09:49:59;;;;;;;2.40;1.70;;;;;;;3.43;57.03;101293.83;180851;1262;43860;-87
2023/04/04 09:54:03;;;;;;;2.20;1.70;;;;;;;3.39;56.29;101293.77;180753;1262;58386;-87
2023/04/04 09:58:23;;;;;;;4.20;1.60;;;;;;;3.48;56.21;101291.90;180828;1262;43849;-86
2023/04/04 10:02:29;;;;;;;4.80;2.10;;;;;;;3.48;55.62;101296.98;180952;1262;44100;-87
2023/04/04 10:06:36;;;;;;;4.20;1.80;;;;;;;3.49;57.70;101299.02;180566;1263;44014;-86
2023/04/04 10:10:55;;;;;;;4.20;1.80;;;;;;;3.43;58.27;101296.79;180608;1263;44025;-86
2023/04/04 10:15:15;;;;;;;2.90;1.80;;;;;;;3.45;59.81;101299.00;180787;1262;58770;-87
2023/04/04 10:19:19;;;;;;;2.40;1.70;;;;;;;3.47;58.09;101296.11;180751;1262;43825;-86
2023/04/04 10:23:25;;;;;;;2.60;1.70;;;;;;;3.42;58.66;101300.48;180945;1262;44210;-86
2023/04/04 10:27:28;;;;;;;5.00;2.30;;;;;;;3.34;61.57;101307.81;180718;1263;44062;-87
2023/04/04 10:31:37;;;;;;;2.60;2.20;;;;;;;3.11;62.21;101310.70;180803;1263;43957;-87
2023/04/04 10:35:44;;;;;;;4.90;2.50;;;;;;;2.95;62.15;101307.74;180958;1262;58668;-87
2023/04/04 10:40:19;;;;;;;3.30;2.20;;;;;;;2.97;62.96;101302.94;180871;1263;44058;-87
2023/04/04 10:44:24;;;;;;;4.90;1.60;;;;;;;2.92;57.00;101291.00;180931;1262;43812;-87
2023/04/04 10:48:28;;;;;;;1.90;1.70;;;;;;;3.07;57.05;101287.34;180890;1263;43754;-87
2023/04/04 10:52:32;;;;;;;6.90;2.00;;;;;;;3.29;58.37;101279.57;180932;1262;44096;-87
2023/04/04 10:56:36;;;;;;;3.80;2.00;;;;;;;3.59;56.31;101275.03;180895;1262;60431;-87
2023/04/04 11:00:53;;;;;;;5.00;2.50;;;;;;;4.04;56.22;101269.32;180602;1263;44137;-87
2023/04/04 11:05:10;;;;;;;3.70;2.20;;;;;;;4.28;54.75;101267.30;180716;1263;44129;-86
2023/04/04 11:09:14;;;;;;;5.40;4.20;;;;;;;4.35;55.87;101263.52;180788;1263;44075;-86
2023/04/04 11:13:21;;;;;;;2.00;1.90;;;;;;;4.37;55.76;101265.02;180650;1264;44110;-87
2023/04/04 11:18:00;;;;;;;7.90;4.60;;;;;;;4.35;56.23;101264.74;180655;1263;58054;-86
2023/04/04 11:22:14;;;;;;;6.60;3.20;;;;;;;4.21;57.68;101258.65;180748;1264;43972;-87
2023/04/04 11:26:34;;;;;;;3.70;3.20;;;;;;;4.16;58.59;101257.23;180856;1263;43845;-87
2023/04/04 11:30:46;;;;;;;5.00;3.30;;;;;;;4.13;57.76;101257.89;180623;1263;43915;-87
2023/04/04 11:34:50;;;;;;;7.80;2.50;;;;;;;4.11;58.09;101260.58;180551;1263;44069;-87
2023/04/04 11:38:57;;;;;;;9.80;3.10;;;;;;;4.12;58.16;101251.05;180882;1262;59324;-87
2023/04/04 11:43:06;;;;;;;4.80;3.50;;;;;;;4.18;58.34;101237.85;180686;1262;44112;-87
2023/04/04 11:47:12;;;;;;;4.40;2.60;;;;;;;4.25;57.90;101233.55;180881;1262;43993;-86
2023/04/04 11:51:17;;;;;;;9.40;2.20;;;;;;;4.16;56.19;101231.78;180739;1262;44218;-87
2023/04/04 11:55:21;;;;;;;5.80;2.80;;;;;;;4.27;56.25;101226.41;180719;1262;43751;-87
2023/04/04 11:59:25;;;;;;;3.30;2.60;;;;;;;4.54;54.53;101224.29;180836;1262;59307;-86
2023/04/04 12:03:28;;;;;;;5.20;2.30;;;;;;;4.70;55.03;101225.77;180725;1263;43732;-86
2023/04/04 12:07:34;;;;;;;5.40;3.70;;;;;;;4.58;56.48;101227.48;180707;1262;44176;-87
2023/04/04 12:11:38;;;;;;;5.00;3.50;;;;;;;4.31;57.76;101235.05;180783;1262;44190;-87
2023/04/04 12:15:42;;;;;;;5.90;4.70;;;;;;;4.14;58.31;101237.66;180763;1263;43938;-87
2023/04/04 12:19:46;;;;;;;6.10;3.30;;;;;;;4.17;59.64;101240.71;180666;1263;58176;-86
2023/04/04 12:23:49;;;;;;;2.10;1.90;;;;;;;4.28;59.10;101235.18;180671;1263;43933;-87
2023/04/04 12:27:54;;;;;;;7.30;3.70;;;;;;;4.45;58.09;101226.43;180552;1263;43769;-86
2023/04/04 12:31:57;;;;;;;5.40;2.60;;;;;;;4.52;57.57;101226.64;180572;1263;43851;-86
2023/04/04 12:36:05;;;;;;;3.30;2.30;;;;;;;4.50;57.04;101220.75;180750;1263;44033;-86
2023/04/04 12:40:09;;;;;;;4.00;3.00;;;;;;;4.55;56.85;101218.98;180755;1263;59270;-86
2023/04/04 12:44:34;;;;;;;5.80;3.10;;;;;;;4.54;55.83;101210.77;180646;1263;44256;-86
2023/04/04 12:48:38;;;;;;;5.00;3.50;;;;;;;4.59;57.02;101208.98;180543;1264;44047;-87
2023/04/04 12:52:41;;;;;;;4.20;2.30;;;;;;;4.51;54.35;101199.66;180626;1263;44056;-84
2023/04/04 12:56:45;;;;;;;5.60;4.10;;;;;;;4.50;55.32;101190.19;180458;1264;44213;-83
2023/04/04 13:00:53;;;;;;;4.80;2.60;;;;;;;4.51;54.83;101190.35;180623;1263;57937;-81
2023/04/04 13:04:57;;;;;;;6.10;2.60;;;;;;;4.45;54.22;101190.05;180622;1263;44324;-81
2023/04/04 13:09:00;;;;;;;7.50;4.30;;;;;;;4.59;54.98;101181.23;180634;1263;44077;-81
2023/04/04 13:13:04;;;;;;;4.40;2.90;;;;;;;4.55;55.95;101192.98;180593;1264;43979;-81
2023/04/04 13:17:08;;;;;;;7.40;2.60;;;;;;;4.61;54.03;101194.30;180440;1264;44080;-82
2023/04/04 13:21:12;;;;;;;5.80;3.00;;;;;;;4.63;53.65;101188.26;180599;1263;59243;-82
2023/04/04 13:25:15;;;;;;;3.90;2.50;;;;;;;4.66;54.29;101181.97;180446;1263;43982;-81
2023/04/04 13:29:18;;;;;;;4.80;2.30;;;;;;;4.69;54.13;101182.75;180467;1264;44096;-82
2023/04/04 13:33:21;;;;;;;3.00;1.90;;;;;;;4.68;55.98;101185.05;180732;1263;44143;-83
2023/04/04 13:37:25;;;;;;;2.60;2.40;;;;;;;4.72;54.59;101176.64;180378;1264;43772;-83
2023/04/04 13:41:28;;;;;;;3.10;2.70;;;;;;;4.76;54.55;101170.86;180646;1263;58701;-83
2023/04/04 13:45:33;;;;;;;4.10;2.50;;;;;;;4.62;54.46;101170.05;180484;1263;44180;-82
2023/04/04 13:49:36;;;;;;;4.30;2.30;;;;;;;4.66;53.47;101170.02;180453;1263;43842;-83
2023/04/04 13:53:40;;;;;;;4.90;3.50;;;;;;;4.72;54.69;101172.77;180602;1264;44094;-83
2023/04/04 13:57:43;;;;;;;6.20;2.40;;;;;;;4.66;53.76;101171.75;180396;1263;43922;-82
2023/04/04 14:01:46;;;;;;;3.80;3.50;;;;;;;4.64;52.83;101167.84;180513;1262;59290;-83
2023/04/04 14:05:49;;;;;;;4.90;2.80;;;;;;;4.74;53.03;101164.96;180501;1262;43895;-83
2023/04/04 14:09:52;;;;;;;3.20;2.60;;;;;;;4.85;54.51;101160.27;180535;1263;43830;-83
2023/04/04 14:13:56;;;;;;;5.10;2.60;;;;;;;5.05;52.37;101151.11;180702;1264;45026;-83
2023/04/04 14:18:00;;;;;;;4.60;2.10;;;;;;;5.10;51.81;101149.69;180650;1263;44184;-83
2023/04/04 14:22:04;;;;;;;3.60;2.20;;;;;;;5.07;50.63;101145.61;180672;1262;57952;-81
2023/04/04 14:26:07;;;;;;;5.00;2.90;;;;;;;5.02;53.06;101152.85;180724;1263;44049;-83
2023/04/04 14:30:11;;;;;;;4.00;2.30;;;;;;;4.95;52.84;101153.65;180611;1263;44069;-83
2023/04/04 14:34:14;;;;;;;10.30;3.20;;;;;;;4.97;53.36;101155.84;180572;1262;43805;-84
2023/04/04 14:38:17;;;;;;;5.70;3.00;;;;;;;5.05;52.65;101154.29;180469;1263;44896;-84
2023/04/04 14:42:20;;;;;;;4.70;2.50;;;;;;;5.18;53.24;101145.61;180379;1263;58759;-84
2023/04/04 14:46:24;;;;;;;6.70;3.00;;;;;;;5.26;51.95;101142.80;180514;1264;44103;-83
2023/04/04 14:50:28;;;;;;;3.40;2.30;;;;;;;5.29;54.12;101140.73;180508;1263;43878;-83
2023/04/04 14:54:31;;;;;;;3.10;2.10;;;;;;;5.24;52.07;101140.05;180510;1264;44076;-83
2023/04/04 14:58:34;;;;;;;7.40;2.60;;;;;;;5.19;53.85;101137.49;180629;1262;43816;-83
2023/04/04 15:02:38;;;;;;;4.70;3.30;;;;;;;5.13;54.93;101136.02;180537;1264;59250;-83
2023/04/04 15:06:41;;;;;;;5.40;3.60;;;;;;;5.09;53.89;101135.66;180588;1263;43881;-84
2023/04/04 15:10:45;;;;;;;8.30;5.00;;;;;;;5.07;55.27;101140.50;180454;1264;43792;-83
2023/04/04 15:14:48;;;;;;;8.70;4.80;;;;;;;5.12;55.83;101136.73;180409;1264;44187;-84
2023/04/04 15:18:51;;;;;;;6.30;3.60;;;;;;;5.22;56.54;101129.94;180343;1264;43814;-83
2023/04/04 15:22:54;;;;;;;4.50;1.90;;;;;;;5.28;53.43;101129.34;180559;1264;59178;-83
2023/04/04 15:26:57;;;;;;;5.20;2.30;;;;;;;5.37;53.68;101123.69;180579;1263;44663;-84
2023/04/04 15:31:01;;;;;;;5.70;3.50;;;;;;;5.58;51.72;101118.63;180496;1264;44056;-83
2023/04/04 15:35:06;;;;;;;5.20;2.70;;;;;;;5.79;50.92;101115.17;180565;1264;44167;-83
2023/04/04 15:39:10;;;;;;;4.60;2.10;;;;;;;5.88;50.87;101118.27;180523;1263;43722;-84
2023/04/04 15:43:13;;;;;;;3.90;2.10;;;;;;;5.90;50.55;101116.75;180492;1264;59302;-85
2023/04/04 15:47:16;;;;;;;5.90;3.50;;;;;;;6.03;50.81;101118.80;180221;1264;49426;-84
2023/04/04 15:51:20;;;;;;;3.90;2.60;;;;;;;6.06;50.46;101114.94;180419;1263;44268;-83
2023/04/04 15:55:23;;;;;;;11.60;6.60;;;;;;;5.99;50.77;101115.10;180407;1263;43847;-84
2023/04/04 15:59:26;;;;;;;11.10;5.70;;;;;;;5.92;52.25;101110.11;180472;1263;43686;-84
2023/04/04 16:03:29;;;;;;;6.70;4.90;;;;;;;5.94;53.70;101107.08;180492;1263;58791;-84
2023/04/04 16:07:33;;;;;;;9.90;3.30;;;;;;;5.94;53.74;101107.41;180147;1264;44083;-84
2023/04/04 16:11:36;;;;;;;3.40;2.30;;;;;;;5.93;52.79;101107.63;180323;1264;43835;-84
2023/04/04 16:15:40;;;;;;;4.00;2.50;;;;;;;5.92;51.56;101108.41;180518;1264;43804;-84
2023/04/04 16:19:42;;;;;;;5.10;2.30;;;;;;;5.84;53.34;101105.06;180330;1264;43972;-84
2023/04/04 16:23:46;;;;;;;5.00;2.70;;;;;;;5.82;55.35;101104.65;180540;1264;59596;-84
2023/04/04 16:27:49;;;;;;;6.00;3.30;;;;;;;5.79;55.46;101100.91;180531;1264;43731;-84
2023/04/04 16:31:52;;;;;;;5.70;3.60;;;;;;;5.73;55.73;101096.09;180572;1264;43847;-84
2023/04/04 16:35:57;;;;;;;4.70;2.50;;;;;;;5.70;54.99;101096.41;180474;1264;44102;-83
2023/04/04 16:40:00;;;;;;;3.80;3.50;;;;;;;5.68;56.14;101093.87;180639;1264;44392;-84
2023/04/04 16:44:04;;;;;;;5.60;3.30;;;;;;;5.64;56.96;101089.46;180570;1262;58353;-84
2023/04/04 16:48:07;;;;;;;5.60;3.70;;;;;;;5.53;56.42;101087.70;180595;1264;43836;-84
2023/04/04 16:52:10;;;;;;;10.50;4.50;;;;;;;5.46;56.99;101084.38;180502;1264;43878;-84
2023/04/04 16:56:14;;;;;;;4.50;3.90;;;;;;;5.37;58.06;101082.85;180448;1264;43839;-84
2023/04/04 17:00:18;;;;;;;42.60;21.00;;;;;;;5.26;59.15;101080.70;180767;1262;43811;-84
2023/04/04 17:04:21;;;;;;;41.20;21.60;;;;;;;5.07;59.78;101077.91;180602;1262;58997;-84
2023/04/04 17:08:25;;;;;;;43.30;24.60;;;;;;;4.95;60.36;101073.33;180669;1262;43793;-84
2023/04/04 17:12:28;;;;;;;38.80;21.70;;;;;;;4.88;61.41;101074.02;180638;1262;43942;-82
2023/04/04 17:16:31;;;;;;;37.00;20.30;;;;;;;4.82;61.68;101073.56;180650;1264;43768;-84
2023/04/04 17:20:36;;;;;;;24.60;13.60;;;;;;;4.72;61.39;101068.55;180502;1263;44124;-84
2023/04/04 17:24:40;;;;;;;16.00;11.70;;;;;;;4.53;62.06;101069.04;180464;1262;58239;-83
2023/04/04 17:28:43;;;;;;;23.80;10.90;;;;;;;4.41;62.13;101069.05;180723;1262;44034;-86
2023/04/04 17:32:47;;;;;;;16.80;9.20;;;;;;;4.38;61.63;101066.36;180507;1263;43907;-86
2023/04/04 17:36:51;;;;;;;70.90;38.50;;;;;;;4.37;62.42;101062.70;180694;1264;43876;-87
2023/04/04 17:40:55;;;;;;;79.70;46.00;;;;;;;4.36;62.61;101062.77;180589;1264;43812;-86
2023/04/04 17:44:58;;;;;;;85.00;44.30;;;;;;;4.32;61.82;101065.75;180320;1265;58516;-88
2023/04/04 17:49:02;;;;;;;63.10;33.00;;;;;;;4.26;61.86;101061.06;180479;1264;44340;-88
2023/04/04 17:53:06;;;;;;;70.40;38.40;;;;;;;4.18;62.90;101060.52;180457;1264;44336;-87
2023/04/04 17:57:09;;;;;;;66.00;32.70;;;;;;;4.06;62.49;101064.02;180458;1263;44230;-87
2023/04/04 18:01:12;;;;;;;46.10;29.50;;;;;;;3.94;62.44;101063.63;180595;1263;44117;-87
2023/04/04 18:05:16;;;;;;;51.40;31.10;;;;;;;3.84;62.65;101063.70;180380;1264;58197;-87
2023/04/04 18:09:21;;;;;;;43.20;26.70;;;;;;;3.73;62.92;101069.06;180609;1262;44303;-87
2023/04/04 18:13:36;;;;;;;36.60;24.90;;;;;;;3.61;62.71;101070.06;181016;1257;45046;31
2023/04/04 18:17:46;;;;;;;32.70;21.20;;;;;;;3.51;63.43;101067.12;181142;1256;45767;31
2023/04/04 18:22:16;;;;;;;26.70;12.70;;;;;;;3.39;64.75;101067.08;180920;1260;45799;31
2023/04/04 18:26:39;;;;;;;13.30;7.50;;;;;;;3.26;67.54;101067.73;181024;1258;58022;-80
2023/04/04 18:30:53;;;;;;;9.20;5.70;;;;;;;3.17;69.17;101068.25;181057;1260;44546;-83
2023/04/04 18:34:57;;;;;;;10.60;4.00;;;;;;;3.09;69.78;101068.54;176786;1261;43281;-83
2023/04/04 18:39:15;;;;;;;7.90;4.20;;;;;;;2.89;72.51;101062.61;180947;1262;44282;-84
2023/04/04 18:43:22;;;;;;;7.80;3.20;;;;;;;2.68;72.26;101061.82;181017;1260;44777;-83
2023/04/04 18:48:00;;;;;;;20.40;4.30;;;;;;;2.52;72.00;101055.93;180956;1264;57830;-91
2023/04/04 18:52:04;;;;;;;9.10;3.40;;;;;;;2.37;73.18;101059.57;180919;1264;43713;-88
2023/04/04 18:56:08;;;;;;;10.30;4.20;;;;;;;2.20;73.74;101062.61;180828;1263;43851;-88
2023/04/04 19:00:15;;;;;;;3.90;2.60;;;;;;;2.04;73.86;101062.10;180799;1264;44095;-86